Varnville, South Carolina
Current Conditions -  °F | °C
As of 3:15 PM on Friday 31 Oct 2014 (Local Time) from KRBW Reporting Station
Scattered Clouds Scattered Clouds  
Wind Chill: 70°   Ceiling: Unl
Heat Index: 70°   Visibility: 10mi
Dew Point: 36°   Wind: 0mph
Humidity: 28%   Direction: NA
Pressure: 29.81"   Gusts: NA
Location:  32.85°N, 81.08°W
Report Text: KRBW 311915Z AUTO 00000KT 10SM SCT060 21/02 A2981 RMK AO2
Loading
Personal Weather Stations






























Interactive Weather Map
Tropical Storm Tracking
New forecast layout! Learn more

10-Day Weather Forecast

Advertisements
Track Severe Weather on mobile